createdAt,value
2023-12-11T00:03:40.332Z,27.50
2023-12-11T00:09:01.557Z,23.73
2023-12-11T00:14:22.608Z,20.75
2023-12-11T00:19:43.745Z,36.90
2023-12-11T00:25:06.153Z,27.40
2023-12-11T00:30:27.743Z,23.42
2023-12-11T00:35:49.436Z,56.57
2023-12-11T00:41:10.690Z,26.60
2023-12-11T00:46:31.800Z,22.52
2023-12-11T00:51:54.558Z,27.63
2023-12-11T00:57:16.328Z,30.98
2023-12-11T01:02:37.508Z,39.80
2023-12-11T01:07:58.618Z,20.52
2023-12-11T01:13:19.481Z,20.45
2023-12-11T01:18:40.618Z,30.75
2023-12-11T01:24:01.939Z,20.53
2023-12-11T01:29:22.918Z,22.50
2023-12-11T01:34:43.951Z,31.70
2023-12-11T01:40:06.456Z,26.10
2023-12-11T01:45:27.438Z,24.98
2023-12-11T01:50:48.515Z,24.45
2023-12-11T01:56:10.573Z,21.85
2023-12-11T02:01:31.734Z,24.70
2023-12-11T02:06:52.662Z,17.33
2023-12-11T02:12:13.707Z,50.03
2023-12-11T02:17:34.805Z,21.65
2023-12-11T02:22:58.962Z,25.23
2023-12-11T02:28:19.837Z,27.90
2023-12-11T02:33:41.378Z,20.15
2023-12-11T02:39:02.804Z,14.97
2023-12-11T02:44:24.249Z,17.07
2023-12-11T02:49:45.890Z,21.00
2023-12-11T02:55:09.685Z,21.00
2023-12-11T03:00:32.426Z,14.60
2023-12-11T03:05:53.722Z,14.43
2023-12-11T03:11:14.892Z,22.38
2023-12-11T03:16:36.150Z,18.95
2023-12-11T03:21:57.249Z,22.27
2023-12-11T03:27:21.621Z,17.15
2023-12-11T03:32:43.024Z,20.80
2023-12-11T03:38:04.338Z,12.63
2023-12-11T03:43:25.327Z,14.95
2023-12-11T03:48:46.899Z,19.27
2023-12-11T03:54:08.495Z,17.98
2023-12-11T03:59:29.451Z,17.08
2023-12-11T04:04:50.718Z,16.27
2023-12-11T04:10:11.947Z,14.33
2023-12-11T04:15:34.391Z,14.17
2023-12-11T04:20:55.498Z,15.20
2023-12-11T04:26:16.558Z,17.92
2023-12-11T04:31:37.574Z,15.23
2023-12-11T04:36:58.659Z,15.95
2023-12-11T04:42:20.181Z,18.50
2023-12-11T04:47:41.349Z,20.42
2023-12-11T04:53:02.856Z,17.03
2023-12-11T04:58:23.997Z,15.82
2023-12-11T05:03:45.671Z,14.57
2023-12-11T05:09:07.776Z,16.95
2023-12-11T05:14:29.001Z,17.47
2023-12-11T05:19:50.325Z,15.25
2023-12-11T05:25:12.121Z,21.27
2023-12-11T05:30:33.384Z,18.92
2023-12-11T05:35:55.167Z,20.00
2023-12-11T05:41:17.195Z,20.60
2023-12-11T05:46:38.757Z,23.70
2023-12-11T05:52:00.508Z,17.47
2023-12-11T05:57:21.844Z,23.97
2023-12-11T06:02:43.147Z,20.65
2023-12-11T06:08:06.046Z,18.25
2023-12-11T06:13:27.560Z,21.30
2023-12-11T06:18:49.100Z,26.27
2023-12-11T06:24:10.646Z,27.00
2023-12-11T06:29:32.168Z,20.70
2023-12-11T06:34:53.580Z,19.50
2023-12-11T06:40:15.180Z,25.97
2023-12-11T06:45:38.700Z,35.30
2023-12-11T06:51:00.642Z,12.52
2023-12-11T06:56:22.447Z,43.72
2023-12-11T07:01:44.101Z,16.00
2023-12-11T07:07:05.623Z,11.18
2023-12-11T07:12:27.076Z,13.83
2023-12-11T07:17:48.431Z,15.13
2023-12-11T07:23:11.502Z,17.13
2023-12-11T07:28:32.775Z,13.60
2023-12-11T07:33:57.044Z,12.55
2023-12-11T07:39:18.992Z,12.25
2023-12-11T07:44:40.104Z,14.77
2023-12-11T07:50:02.125Z,8.68
2023-12-11T07:55:23.413Z,12.80
2023-12-11T08:00:45.143Z,18.38
2023-12-11T08:06:06.915Z,12.73
2023-12-11T08:11:31.208Z,10.97
2023-12-11T08:16:52.837Z,11.35
2023-12-11T08:22:15.006Z,13.55
2023-12-11T08:27:36.202Z,11.70
2023-12-11T08:32:57.799Z,13.60
2023-12-11T08:38:19.939Z,9.33
2023-12-11T08:43:41.607Z,9.48
2023-12-11T08:49:15.138Z,16.83
2023-12-11T08:54:58.292Z,35.15
2023-12-11T09:00:30.239Z,32.53
2023-12-11T09:05:58.056Z,19.63
2023-12-11T09:11:21.344Z,20.40
2023-12-11T09:16:46.375Z,13.48
2023-12-11T09:22:14.250Z,13.65
2023-12-11T09:27:40.171Z,15.13
2023-12-11T09:33:14.097Z,12.70
2023-12-11T09:38:35.740Z,13.20
2023-12-11T09:43:58.420Z,15.68
2023-12-11T09:49:20.236Z,11.25
2023-12-11T09:54:42.274Z,14.53
2023-12-11T10:05:29.332Z,8.68
2023-12-11T10:10:50.487Z,11.17
2023-12-11T10:16:47.541Z,12.17
2023-12-11T10:22:08.644Z,23.48
2023-12-11T10:27:30.193Z,16.40
2023-12-11T10:32:51.762Z,19.58
2023-12-11T10:38:21.492Z,11.43
2023-12-11T10:49:07.854Z,8.80
2023-12-11T10:54:29.629Z,14.07
2023-12-11T10:59:52.202Z,13.73
2023-12-11T11:05:14.184Z,13.40
2023-12-11T11:10:50.779Z,16.88
2023-12-11T11:16:12.496Z,13.57
2023-12-11T11:21:33.926Z,9.60
2023-12-11T11:26:55.655Z,11.15
2023-12-11T11:32:19.244Z,15.48
2023-12-11T11:37:50.432Z,232.20
2023-12-11T11:43:12.334Z,65.00
2023-12-11T11:48:43.245Z,62.00
2023-12-11T11:54:06.780Z,131.68
2023-12-11T11:59:28.110Z,134.68
2023-12-11T12:04:49.639Z,114.67
2023-12-11T12:10:13.133Z,109.68
2023-12-11T12:15:45.929Z,280.10
2023-12-11T12:21:09.188Z,210.00
2023-12-11T12:26:32.535Z,259.27
2023-12-11T12:31:53.650Z,144.65
2023-12-11T12:37:15.312Z,260.50
2023-12-11T12:42:40.547Z,186.27
2023-12-11T12:48:05.812Z,132.50
2023-12-11T12:53:28.135Z,148.38
2023-12-11T12:58:50.325Z,214.45
2023-12-11T13:04:12.842Z,162.70
2023-12-11T13:09:36.005Z,285.95
2023-12-11T13:15:08.884Z,154.35
2023-12-11T13:20:35.198Z,112.55
2023-12-11T13:26:09.112Z,149.88
2023-12-11T13:31:30.627Z,147.57
2023-12-11T13:36:54.392Z,69.68
2023-12-11T13:42:16.374Z,97.45
2023-12-11T13:47:42.737Z,133.65
2023-12-11T13:53:04.836Z,98.50
2023-12-11T14:03:56.007Z,87.80
2023-12-11T14:09:22.946Z,106.20
2023-12-11T14:14:44.194Z,186.73
2023-12-11T14:20:07.431Z,155.30
2023-12-11T14:25:29.703Z,86.70
2023-12-11T14:30:53.158Z,116.05
2023-12-11T14:36:19.300Z,79.45
2023-12-11T14:41:44.899Z,75.75
2023-12-11T14:47:07.610Z,96.22
2023-12-11T14:52:29.317Z,124.15
2023-12-11T14:57:51.610Z,80.20
2023-12-11T15:03:12.693Z,105.57
2023-12-11T15:08:34.890Z,70.97
2023-12-11T15:19:17.926Z,74.28
2023-12-11T15:24:39.134Z,132.67
2023-12-11T15:30:00.301Z,126.30
2023-12-11T15:35:21.933Z,116.97
2023-12-11T15:40:44.013Z,86.57
2023-12-11T15:51:31.076Z,98.20
2023-12-11T15:56:52.878Z,91.80
2023-12-11T16:02:14.120Z,141.57
2023-12-11T16:07:36.205Z,58.93
2023-12-11T16:12:57.774Z,47.28
2023-12-11T16:23:41.483Z,44.72
2023-12-11T16:29:03.182Z,35.50
2023-12-11T16:34:24.809Z,48.90
2023-12-11T16:39:47.337Z,29.40
2023-12-11T16:45:11.924Z,30.42
2023-12-11T16:50:33.470Z,16.67
2023-12-11T17:01:17.425Z,30.47
2023-12-11T17:06:38.860Z,32.97
2023-12-11T17:12:00.558Z,32.10
2023-12-11T17:17:22.613Z,41.30
2023-12-11T17:22:44.365Z,79.55
2023-12-11T17:28:06.172Z,42.97
2023-12-11T17:33:28.061Z,86.68
2023-12-11T17:38:57.596Z,65.25
2023-12-11T17:44:20.961Z,75.70
2023-12-11T17:49:42.871Z,35.03
2023-12-11T17:55:05.473Z,41.37
2023-12-11T18:00:27.087Z,52.63
2023-12-11T18:05:48.939Z,52.53
2023-12-11T18:11:10.072Z,306.30
2023-12-11T18:16:31.328Z,239.15
2023-12-11T18:21:53.149Z,303.15
2023-12-11T18:27:14.457Z,169.57
2023-12-11T18:32:39.211Z,215.93
2023-12-11T18:38:00.674Z,213.50
2023-12-11T18:43:23.813Z,155.40
2023-12-11T18:48:46.379Z,152.20
2023-12-11T18:54:08.290Z,119.18
2023-12-11T18:59:29.493Z,93.35
2023-12-11T19:04:53.674Z,82.23
2023-12-11T19:10:15.288Z,138.13
2023-12-11T19:15:36.820Z,169.63
2023-12-11T19:20:58.394Z,72.15
2023-12-11T19:26:19.596Z,50.40
2023-12-11T19:31:44.227Z,58.55
2023-12-11T19:37:05.837Z,60.42
2023-12-11T19:42:27.678Z,73.53
2023-12-11T19:47:48.905Z,67.80
2023-12-11T19:53:10.352Z,52.83
2023-12-11T19:58:32.883Z,47.37
2023-12-11T20:03:54.976Z,56.97
2023-12-11T20:14:38.876Z,37.50
2023-12-11T20:20:06.057Z,48.70
2023-12-11T20:25:27.732Z,48.25
2023-12-11T20:30:49.194Z,38.50
2023-12-11T20:36:20.186Z,39.20
2023-12-11T20:41:41.517Z,60.38
2023-12-11T20:47:02.615Z,60.95
2023-12-11T20:52:24.165Z,41.67
2023-12-11T20:57:45.576Z,33.30
2023-12-11T21:03:06.924Z,37.83
2023-12-11T21:08:28.814Z,35.40
2023-12-11T21:13:50.974Z,36.88
2023-12-11T21:19:12.961Z,29.50
2023-12-11T21:24:36.997Z,30.05
2023-12-11T21:29:58.826Z,27.60
2023-12-11T21:35:20.426Z,26.80
2023-12-11T21:40:42.193Z,28.35
2023-12-11T21:46:03.998Z,31.08
2023-12-11T21:51:26.093Z,27.27
2023-12-11T21:56:47.879Z,28.48
2023-12-11T22:02:09.557Z,27.77
2023-12-11T22:07:31.734Z,28.25
2023-12-11T22:18:17.802Z,31.17
2023-12-11T22:23:47.238Z,46.33
2023-12-11T22:29:16.234Z,77.07
2023-12-11T22:34:52.754Z,45.67
2023-12-11T22:40:32.023Z,35.33
2023-12-11T22:46:23.921Z,34.55
2023-12-11T23:17:39.067Z,34.42
2023-12-11T23:23:04.918Z,36.92
2023-12-11T23:28:26.339Z,38.43
2023-12-11T23:33:49.228Z,39.05
2023-12-11T23:39:16.426Z,36.47
2023-12-11T23:44:38.011Z,36.92
2023-12-11T23:50:05.678Z,38.05
2023-12-11T23:55:32.366Z,35.83
